sensor_id;sensor_type;location;lat;lon;timestamp;pressure;altitude;pressure_sealevel;temperature;humidity
52957;BME280;38819;42.692;23.342;2022-10-17T00:00:49;96604.75;;;9.79;68.32
52957;BME280;38819;42.692;23.342;2022-10-17T00:03:15;96603.19;;;9.61;69.24
52957;BME280;38819;42.692;23.342;2022-10-17T00:05:42;96603.81;;;9.46;69.82
52957;BME280;38819;42.692;23.342;2022-10-17T00:08:08;96605.66;;;9.41;69.93
52957;BME280;38819;42.692;23.342;2022-10-17T00:10:34;96599.16;;;9.42;69.77
52957;BME280;38819;42.692;23.342;2022-10-17T00:12:59;96602.81;;;9.53;69.28
52957;BME280;38819;42.692;23.342;2022-10-17T00:15:24;96601.38;;;9.45;69.43
52957;BME280;38819;42.692;23.342;2022-10-17T00:17:49;96604.31;;;9.43;69.50
52957;BME280;38819;42.692;23.342;2022-10-17T00:20:16;96606.94;;;9.38;69.78
52957;BME280;38819;42.692;23.342;2022-10-17T00:22:42;96602.13;;;9.40;69.32
52957;BME280;38819;42.692;23.342;2022-10-17T00:25:07;96607.81;;;9.22;70.37
52957;BME280;38819;42.692;23.342;2022-10-17T00:27:33;96602.81;;;9.31;69.83
52957;BME280;38819;42.692;23.342;2022-10-17T00:29:59;96603.50;;;9.43;69.19
52957;BME280;38819;42.692;23.342;2022-10-17T00:32:24;96604.81;;;9.40;69.20
52957;BME280;38819;42.692;23.342;2022-10-17T00:34:49;96600.06;;;9.48;68.94
52957;BME280;38819;42.692;23.342;2022-10-17T00:37:15;96598.66;;;9.45;68.67
52957;BME280;38819;42.692;23.342;2022-10-17T00:39:40;96605.22;;;9.49;68.71
52957;BME280;38819;42.692;23.342;2022-10-17T00:42:05;96614.91;;;9.50;68.68
52957;BME280;38819;42.692;23.342;2022-10-17T00:47:03;96606.81;;;9.50;68.02
52957;BME280;38819;42.692;23.342;2022-10-17T00:49:30;96610.41;;;9.56;67.95
52957;BME280;38819;42.692;23.342;2022-10-17T00:52:18;96612.47;;;9.49;68.44
52957;BME280;38819;42.692;23.342;2022-10-17T00:54:44;96614.41;;;9.53;68.33
52957;BME280;38819;42.692;23.342;2022-10-17T00:57:10;96612.81;;;9.52;68.58
52957;BME280;38819;42.692;23.342;2022-10-17T00:59:36;96610.09;;;9.52;68.28
52957;BME280;38819;42.692;23.342;2022-10-17T01:02:06;96604.91;;;9.45;68.21
52957;BME280;38819;42.692;23.342;2022-10-17T01:04:32;96619.50;;;9.50;67.77
52957;BME280;38819;42.692;23.342;2022-10-17T01:06:57;96612.22;;;9.50;67.62
52957;BME280;38819;42.692;23.342;2022-10-17T01:09:23;96610.19;;;9.40;67.51
52957;BME280;38819;42.692;23.342;2022-10-17T01:17:12;96616.63;;;9.34;68.55
52957;BME280;38819;42.692;23.342;2022-10-17T01:22:27;96613.84;;;9.29;68.57
52957;BME280;38819;42.692;23.342;2022-10-17T01:30:31;96613.78;;;9.24;68.70
52957;BME280;38819;42.692;23.342;2022-10-17T01:32:54;96607.06;;;9.26;68.62
52957;BME280;38819;42.692;23.342;2022-10-17T01:35:25;96610.44;;;9.17;68.56
52957;BME280;38819;42.692;23.342;2022-10-17T01:37:58;96607.53;;;9.01;69.17
52957;BME280;38819;42.692;23.342;2022-10-17T01:40:27;96614.31;;;8.87;69.97
52957;BME280;38819;42.692;23.342;2022-10-17T01:43:10;96612.09;;;8.79;70.56
52957;BME280;38819;42.692;23.342;2022-10-17T01:45:40;96617.03;;;8.87;70.29
52957;BME280;38819;42.692;23.342;2022-10-17T01:48:08;96622.50;;;8.92;69.80
52957;BME280;38819;42.692;23.342;2022-10-17T01:53:22;96625.88;;;8.82;70.23
52957;BME280;38819;42.692;23.342;2022-10-17T01:55:48;96625.38;;;8.85;69.83
52957;BME280;38819;42.692;23.342;2022-10-17T01:58:34;96622.75;;;8.90;69.54
52957;BME280;38819;42.692;23.342;2022-10-17T02:01:01;96620.38;;;8.94;69.48
52957;BME280;38819;42.692;23.342;2022-10-17T02:03:28;96622.84;;;8.79;70.22
52957;BME280;38819;42.692;23.342;2022-10-17T02:05:55;96627.47;;;8.83;69.98
52957;BME280;38819;42.692;23.342;2022-10-17T02:08:24;96622.94;;;8.84;70.00
52957;BME280;38819;42.692;23.342;2022-10-17T02:10:57;96629.38;;;8.83;69.92
52957;BME280;38819;42.692;23.342;2022-10-17T02:16:34;96640.47;;;8.69;70.40
52957;BME280;38819;42.692;23.342;2022-10-17T02:21:48;96636.22;;;8.57;70.66
52957;BME280;38819;42.692;23.342;2022-10-17T02:26:44;96640.41;;;8.47;70.81
52957;BME280;38819;42.692;23.342;2022-10-17T02:29:14;96639.00;;;8.62;70.23
52957;BME280;38819;42.692;23.342;2022-10-17T02:31:48;96647.31;;;8.60;70.69
52957;BME280;38819;42.692;23.342;2022-10-17T02:36:42;96650.47;;;8.40;71.04
52957;BME280;38819;42.692;23.342;2022-10-17T02:39:09;96647.75;;;8.40;71.69
52957;BME280;38819;42.692;23.342;2022-10-17T02:41:35;96649.91;;;8.38;71.65
52957;BME280;38819;42.692;23.342;2022-10-17T02:44:02;96648.97;;;8.44;71.37
52957;BME280;38819;42.692;23.342;2022-10-17T02:46:29;96657.97;;;8.38;71.12
52957;BME280;38819;42.692;23.342;2022-10-17T02:49:00;96660.66;;;8.38;71.41
52957;BME280;38819;42.692;23.342;2022-10-17T02:57:06;96668.97;;;8.37;70.41
52957;BME280;38819;42.692;23.342;2022-10-17T02:59:32;96671.75;;;8.42;69.70
52957;BME280;38819;42.692;23.342;2022-10-17T03:02:01;96667.22;;;8.42;69.71
52957;BME280;38819;42.692;23.342;2022-10-17T03:04:27;96674.97;;;8.39;70.46
52957;BME280;38819;42.692;23.342;2022-10-17T03:06:52;96677.06;;;8.37;70.07
52957;BME280;38819;42.692;23.342;2022-10-17T03:09:17;96685.13;;;8.37;69.81
52957;BME280;38819;42.692;23.342;2022-10-17T03:11:43;96682.59;;;8.30;69.43
52957;BME280;38819;42.692;23.342;2022-10-17T03:14:08;96684.63;;;8.23;69.00
52957;BME280;38819;42.692;23.342;2022-10-17T03:16:33;96683.22;;;8.20;68.61
52957;BME280;38819;42.692;23.342;2022-10-17T03:18:58;96685.66;;;8.22;69.15
52957;BME280;38819;42.692;23.342;2022-10-17T03:21:24;96682.41;;;8.20;69.02
52957;BME280;38819;42.692;23.342;2022-10-17T03:23:49;96678.09;;;8.19;68.83
52957;BME280;38819;42.692;23.342;2022-10-17T03:26:14;96678.19;;;8.24;68.61
52957;BME280;38819;42.692;23.342;2022-10-17T03:28:40;96678.66;;;8.21;68.17
52957;BME280;38819;42.692;23.342;2022-10-17T03:31:08;96688.28;;;8.16;69.11
52957;BME280;38819;42.692;23.342;2022-10-17T03:33:35;96680.66;;;8.13;68.84
52957;BME280;38819;42.692;23.342;2022-10-17T03:36:03;96685.56;;;8.16;68.61
52957;BME280;38819;42.692;23.342;2022-10-17T03:38:28;96686.88;;;8.14;69.44
52957;BME280;38819;42.692;23.342;2022-10-17T03:40:54;96678.72;;;8.09;68.45
52957;BME280;38819;42.692;23.342;2022-10-17T03:43:20;96690.09;;;7.99;69.64
52957;BME280;38819;42.692;23.342;2022-10-17T03:45:45;96688.78;;;8.02;69.49
52957;BME280;38819;42.692;23.342;2022-10-17T03:48:10;96694.69;;;7.98;69.21
52957;BME280;38819;42.692;23.342;2022-10-17T03:50:35;96702.38;;;7.95;69.35
52957;BME280;38819;42.692;23.342;2022-10-17T03:53:01;96703.00;;;7.97;69.61
52957;BME280;38819;42.692;23.342;2022-10-17T03:55:26;96700.88;;;7.99;69.57
52957;BME280;38819;42.692;23.342;2022-10-17T03:57:51;96699.31;;;8.03;69.75
52957;BME280;38819;42.692;23.342;2022-10-17T04:00:16;96704.84;;;7.96;69.38
52957;BME280;38819;42.692;23.342;2022-10-17T04:02:42;96706.16;;;7.94;69.79
52957;BME280;38819;42.692;23.342;2022-10-17T04:05:08;96693.75;;;7.93;69.00
52957;BME280;38819;42.692;23.342;2022-10-17T04:07:34;96704.16;;;7.89;69.98
52957;BME280;38819;42.692;23.342;2022-10-17T04:10:01;96700.31;;;7.97;69.78
52957;BME280;38819;42.692;23.342;2022-10-17T04:12:26;96703.25;;;7.84;70.12
52957;BME280;38819;42.692;23.342;2022-10-17T04:14:51;96709.44;;;7.84;70.05
52957;BME280;38819;42.692;23.342;2022-10-17T04:17:17;96700.69;;;7.89;69.80
52957;BME280;38819;42.692;23.342;2022-10-17T04:19:42;96709.66;;;7.94;69.89
52957;BME280;38819;42.692;23.342;2022-10-17T04:22:07;96711.88;;;7.97;69.60
52957;BME280;38819;42.692;23.342;2022-10-17T04:24:33;96705.03;;;8.07;69.31
52957;BME280;38819;42.692;23.342;2022-10-17T04:26:58;96710.69;;;8.05;69.19
52957;BME280;38819;42.692;23.342;2022-10-17T04:29:24;96718.50;;;8.07;69.40
52957;BME280;38819;42.692;23.342;2022-10-17T04:31:49;96720.28;;;8.01;69.02
52957;BME280;38819;42.692;23.342;2022-10-17T04:34:16;96712.44;;;8.00;68.88
52957;BME280;38819;42.692;23.342;2022-10-17T04:36:41;96716.34;;;7.92;69.71
52957;BME280;38819;42.692;23.342;2022-10-17T04:39:06;96719.84;;;7.92;69.60
52957;BME280;38819;42.692;23.342;2022-10-17T04:41:32;96721.25;;;7.83;69.60
52957;BME280;38819;42.692;23.342;2022-10-17T04:43:57;96722.09;;;7.84;69.31
52957;BME280;38819;42.692;23.342;2022-10-17T04:46:23;96726.50;;;7.90;69.24
52957;BME280;38819;42.692;23.342;2022-10-17T04:48:48;96723.56;;;7.91;68.67
52957;BME280;38819;42.692;23.342;2022-10-17T04:51:14;96729.56;;;7.82;68.21
52957;BME280;38819;42.692;23.342;2022-10-17T04:53:40;96725.50;;;7.79;67.96
52957;BME280;38819;42.692;23.342;2022-10-17T04:56:10;96718.84;;;7.58;68.32
52957;BME280;38819;42.692;23.342;2022-10-17T04:58:35;96738.13;;;7.67;68.52
52957;BME280;38819;42.692;23.342;2022-10-17T05:01:04;96730.78;;;7.62;68.69
52957;BME280;38819;42.692;23.342;2022-10-17T05:03:30;96732.06;;;7.59;68.59
52957;BME280;38819;42.692;23.342;2022-10-17T05:05:55;96739.91;;;7.61;68.96
52957;BME280;38819;42.692;23.342;2022-10-17T05:08:20;96736.16;;;7.62;68.72
52957;BME280;38819;42.692;23.342;2022-10-17T05:10:46;96746.69;;;7.64;68.51
52957;BME280;38819;42.692;23.342;2022-10-17T05:13:11;96744.22;;;7.74;68.14
52957;BME280;38819;42.692;23.342;2022-10-17T05:15:37;96745.97;;;7.68;68.00
52957;BME280;38819;42.692;23.342;2022-10-17T05:18:02;96749.38;;;7.64;67.89
52957;BME280;38819;42.692;23.342;2022-10-17T05:20:28;96749.97;;;7.54;68.30
52957;BME280;38819;42.692;23.342;2022-10-17T05:22:54;96752.44;;;7.55;68.40
52957;BME280;38819;42.692;23.342;2022-10-17T05:25:19;96767.81;;;7.60;68.50
52957;BME280;38819;42.692;23.342;2022-10-17T05:27:45;96754.75;;;7.64;68.38
52957;BME280;38819;42.692;23.342;2022-10-17T05:30:10;96766.09;;;7.66;68.34
52957;BME280;38819;42.692;23.342;2022-10-17T05:32:36;96767.47;;;7.68;68.34
52957;BME280;38819;42.692;23.342;2022-10-17T05:35:01;96775.31;;;7.70;68.42
52957;BME280;38819;42.692;23.342;2022-10-17T05:37:28;96769.69;;;7.71;68.67
52957;BME280;38819;42.692;23.342;2022-10-17T05:39:54;96779.63;;;7.83;68.15
52957;BME280;38819;42.692;23.342;2022-10-17T05:42:19;96772.47;;;7.88;67.89
52957;BME280;38819;42.692;23.342;2022-10-17T05:44:44;96774.00;;;7.96;67.90
52957;BME280;38819;42.692;23.342;2022-10-17T05:47:10;96768.72;;;8.01;67.68
52957;BME280;38819;42.692;23.342;2022-10-17T05:49:35;96775.50;;;8.04;67.68
52957;BME280;38819;42.692;23.342;2022-10-17T05:52:00;96773.81;;;8.14;67.70
52957;BME280;38819;42.692;23.342;2022-10-17T05:54:25;96777.56;;;8.13;67.88
52957;BME280;38819;42.692;23.342;2022-10-17T05:56:51;96786.25;;;8.15;67.58
52957;BME280;38819;42.692;23.342;2022-10-17T05:59:17;96785.16;;;8.16;67.82
52957;BME280;38819;42.692;23.342;2022-10-17T06:01:42;96795.69;;;8.18;67.73
52957;BME280;38819;42.692;23.342;2022-10-17T06:04:07;96799.91;;;8.26;67.70
52957;BME280;38819;42.692;23.342;2022-10-17T06:06:35;96791.00;;;8.25;67.74
52957;BME280;38819;42.692;23.342;2022-10-17T06:09:00;96793.19;;;8.28;67.79
52957;BME280;38819;42.692;23.342;2022-10-17T06:11:25;96799.09;;;8.25;67.59
52957;BME280;38819;42.692;23.342;2022-10-17T06:13:51;96799.84;;;8.38;67.36
52957;BME280;38819;42.692;23.342;2022-10-17T06:16:16;96794.47;;;8.38;67.34
52957;BME280;38819;42.692;23.342;2022-10-17T06:18:41;96792.47;;;8.45;67.30
52957;BME280;38819;42.692;23.342;2022-10-17T06:21:07;96796.09;;;8.50;67.42
52957;BME280;38819;42.692;23.342;2022-10-17T06:23:33;96809.22;;;8.47;67.62
52957;BME280;38819;42.692;23.342;2022-10-17T06:25:59;96806.19;;;8.43;67.63
52957;BME280;38819;42.692;23.342;2022-10-17T06:28:24;96814.97;;;8.50;67.68
52957;BME280;38819;42.692;23.342;2022-10-17T06:30:50;96816.47;;;8.46;67.51
52957;BME280;38819;42.692;23.342;2022-10-17T06:33:15;96821.97;;;8.51;67.59
52957;BME280;38819;42.692;23.342;2022-10-17T06:35:41;96818.47;;;8.51;67.55
52957;BME280;38819;42.692;23.342;2022-10-17T06:38:07;96824.66;;;8.51;67.63
52957;BME280;38819;42.692;23.342;2022-10-17T06:40:32;96825.81;;;8.56;67.54
52957;BME280;38819;42.692;23.342;2022-10-17T06:42:57;96829.28;;;8.68;67.33
52957;BME280;38819;42.692;23.342;2022-10-17T06:45:23;96828.00;;;8.70;67.15
52957;BME280;38819;42.692;23.342;2022-10-17T06:47:48;96827.50;;;8.74;67.04
52957;BME280;38819;42.692;23.342;2022-10-17T06:50:13;96821.81;;;8.87;66.68
52957;BME280;38819;42.692;23.342;2022-10-17T06:52:39;96821.66;;;8.94;66.55
52957;BME280;38819;42.692;23.342;2022-10-17T06:55:04;96824.56;;;9.04;66.46
52957;BME280;38819;42.692;23.342;2022-10-17T06:57:30;96825.06;;;9.18;66.05
52957;BME280;38819;42.692;23.342;2022-10-17T06:59:55;96819.34;;;9.31;65.97
52957;BME280;38819;42.692;23.342;2022-10-17T07:02:21;96825.69;;;9.42;65.56
52957;BME280;38819;42.692;23.342;2022-10-17T07:04:48;96828.59;;;9.52;65.39
52957;BME280;38819;42.692;23.342;2022-10-17T07:07:13;96831.84;;;9.54;65.07
52957;BME280;38819;42.692;23.342;2022-10-17T07:09:38;96824.41;;;9.61;64.85
52957;BME280;38819;42.692;23.342;2022-10-17T07:12:04;96821.69;;;9.61;64.89
52957;BME280;38819;42.692;23.342;2022-10-17T07:14:32;96826.69;;;9.70;64.78
52957;BME280;38819;42.692;23.342;2022-10-17T07:16:57;96819.72;;;9.74;64.89
52957;BME280;38819;42.692;23.342;2022-10-17T07:19:23;96823.88;;;9.81;64.50
52957;BME280;38819;42.692;23.342;2022-10-17T07:21:48;96818.31;;;9.88;64.42
52957;BME280;38819;42.692;23.342;2022-10-17T07:24:14;96830.81;;;9.94;64.52
52957;BME280;38819;42.692;23.342;2022-10-17T07:26:39;96830.97;;;10.05;64.30
52957;BME280;38819;42.692;23.342;2022-10-17T07:29:04;96825.75;;;10.20;63.87
52957;BME280;38819;42.692;23.342;2022-10-17T07:31:31;96824.00;;;10.31;63.45
52957;BME280;38819;42.692;23.342;2022-10-17T07:33:58;96826.88;;;10.41;63.04
52957;BME280;38819;42.692;23.342;2022-10-17T07:36:23;96823.97;;;10.48;63.19
52957;BME280;38819;42.692;23.342;2022-10-17T07:38:48;96829.53;;;10.63;62.72
52957;BME280;38819;42.692;23.342;2022-10-17T07:41:14;96827.75;;;10.74;62.19
52957;BME280;38819;42.692;23.342;2022-10-17T07:43:39;96825.75;;;10.86;61.87
52957;BME280;38819;42.692;23.342;2022-10-17T07:46:06;96842.31;;;10.95;61.60
52957;BME280;38819;42.692;23.342;2022-10-17T07:48:32;96839.66;;;11.00;61.37
52957;BME280;38819;42.692;23.342;2022-10-17T07:51:00;96833.53;;;11.10;61.08
52957;BME280;38819;42.692;23.342;2022-10-17T07:53:26;96826.59;;;11.19;60.95
52957;BME280;38819;42.692;23.342;2022-10-17T07:55:51;96830.47;;;11.28;60.95
52957;BME280;38819;42.692;23.342;2022-10-17T07:58:16;96827.59;;;11.40;60.52
52957;BME280;38819;42.692;23.342;2022-10-17T08:00:42;96822.94;;;11.36;60.32
52957;BME280;38819;42.692;23.342;2022-10-17T08:03:08;96833.22;;;11.34;60.19
52957;BME280;38819;42.692;23.342;2022-10-17T08:05:34;96826.69;;;11.29;60.49
52957;BME280;38819;42.692;23.342;2022-10-17T08:08:00;96835.53;;;11.20;60.42
52957;BME280;38819;42.692;23.342;2022-10-17T08:10:25;96821.28;;;11.29;60.57
52957;BME280;38819;42.692;23.342;2022-10-17T08:12:55;96824.34;;;11.38;60.26
52957;BME280;38819;42.692;23.342;2022-10-17T08:15:21;96817.94;;;11.49;60.20
52957;BME280;38819;42.692;23.342;2022-10-17T08:17:47;96816.41;;;11.64;59.82
52957;BME280;38819;42.692;23.342;2022-10-17T08:20:12;96818.38;;;11.74;59.47
52957;BME280;38819;42.692;23.342;2022-10-17T08:22:37;96814.56;;;11.70;59.49
52957;BME280;38819;42.692;23.342;2022-10-17T08:25:03;96809.72;;;11.77;59.34
52957;BME280;38819;42.692;23.342;2022-10-17T08:27:28;96806.06;;;11.93;58.69
52957;BME280;38819;42.692;23.342;2022-10-17T08:29:54;96798.28;;;12.02;58.69
52957;BME280;38819;42.692;23.342;2022-10-17T08:32:19;96811.69;;;11.86;58.39
52957;BME280;38819;42.692;23.342;2022-10-17T08:34:45;96800.69;;;11.98;58.28
52957;BME280;38819;42.692;23.342;2022-10-17T08:37:11;96808.03;;;12.03;57.96
52957;BME280;38819;42.692;23.342;2022-10-17T08:39:38;96799.09;;;12.08;57.87
52957;BME280;38819;42.692;23.342;2022-10-17T08:42:16;96802.13;;;12.16;56.94
52957;BME280;38819;42.692;23.342;2022-10-17T08:47:36;96801.94;;;12.28;55.73
52957;BME280;38819;42.692;23.342;2022-10-17T08:50:00;96807.06;;;12.25;55.38
52957;BME280;38819;42.692;23.342;2022-10-17T08:54:57;96812.00;;;12.43;54.34
52957;BME280;38819;42.692;23.342;2022-10-17T08:57:23;96814.16;;;12.46;53.99
52957;BME280;38819;42.692;23.342;2022-10-17T08:59:49;96806.13;;;12.62;53.21
52957;BME280;38819;42.692;23.342;2022-10-17T09:12:45;96805.13;;;12.98;51.93
52957;BME280;38819;42.692;23.342;2022-10-17T09:20:20;96805.41;;;13.18;50.96
52957;BME280;38819;42.692;23.342;2022-10-17T09:22:48;96798.63;;;13.30;50.90
52957;BME280;38819;42.692;23.342;2022-10-17T09:25:16;96801.38;;;13.36;50.37
52957;BME280;38819;42.692;23.342;2022-10-17T09:30:14;96804.34;;;13.39;47.81
52957;BME280;38819;42.692;23.342;2022-10-17T09:32:41;96801.63;;;13.49;47.79
52957;BME280;38819;42.692;23.342;2022-10-17T09:35:11;96803.53;;;13.59;47.78
52957;BME280;38819;42.692;23.342;2022-10-17T09:37:37;96789.41;;;13.62;47.15
52957;BME280;38819;42.692;23.342;2022-10-17T09:40:03;96790.19;;;13.73;46.82
52957;BME280;38819;42.692;23.342;2022-10-17T09:42:31;96797.25;;;13.79;46.40
52957;BME280;38819;42.692;23.342;2022-10-17T09:47:39;96784.78;;;13.88;46.40
52957;BME280;38819;42.692;23.342;2022-10-17T09:50:24;96798.88;;;13.96;46.18
52957;BME280;38819;42.692;23.342;2022-10-17T09:52:50;96795.34;;;14.00;44.56
52957;BME280;38819;42.692;23.342;2022-10-17T09:57:53;96785.22;;;14.16;42.86
52957;BME280;38819;42.692;23.342;2022-10-17T10:00:24;96775.44;;;14.20;42.82
52957;BME280;38819;42.692;23.342;2022-10-17T10:02:50;96779.47;;;14.28;42.81
52957;BME280;38819;42.692;23.342;2022-10-17T10:05:16;96782.16;;;14.33;41.30
52957;BME280;38819;42.692;23.342;2022-10-17T10:07:42;96773.16;;;14.43;41.81
52957;BME280;38819;42.692;23.342;2022-10-17T10:10:23;96779.91;;;14.56;42.42
52957;BME280;38819;42.692;23.342;2022-10-17T10:15:49;96762.66;;;14.81;41.67
52957;BME280;38819;42.692;23.342;2022-10-17T10:21:01;96767.47;;;14.94;36.24
52957;BME280;38819;42.692;23.342;2022-10-17T10:23:27;96766.59;;;15.04;36.16
52957;BME280;38819;42.692;23.342;2022-10-17T10:26:00;96757.06;;;15.01;35.38
52957;BME280;38819;42.692;23.342;2022-10-17T10:28:27;96751.59;;;15.07;36.50
52957;BME280;38819;42.692;23.342;2022-10-17T10:30:53;96755.09;;;15.12;35.53
52957;BME280;38819;42.692;23.342;2022-10-17T10:33:20;96747.13;;;15.21;36.15
52957;BME280;38819;42.692;23.342;2022-10-17T10:35:53;96745.44;;;15.30;36.35
52957;BME280;38819;42.692;23.342;2022-10-17T10:38:19;96749.16;;;15.40;36.42
52957;BME280;38819;42.692;23.342;2022-10-17T10:40:49;96748.81;;;15.46;36.43
52957;BME280;38819;42.692;23.342;2022-10-17T10:45:49;96739.69;;;15.61;36.67
52957;BME280;38819;42.692;23.342;2022-10-17T10:48:25;96739.66;;;15.66;36.81
52957;BME280;38819;42.692;23.342;2022-10-17T10:51:01;96733.69;;;15.64;36.02
52957;BME280;38819;42.692;23.342;2022-10-17T11:07:02;96718.47;;;16.11;36.03
52957;BME280;38819;42.692;23.342;2022-10-17T11:14:48;96711.56;;;16.19;34.35
52957;BME280;38819;42.692;23.342;2022-10-17T11:17:18;96714.53;;;16.23;34.63
52957;BME280;38819;42.692;23.342;2022-10-17T11:19:55;96706.56;;;16.26;33.98
52957;BME280;38819;42.692;23.342;2022-10-17T11:22:59;96703.19;;;16.35;34.13
52957;BME280;38819;42.692;23.342;2022-10-17T11:25:27;96704.97;;;16.44;34.20
52957;BME280;38819;42.692;23.342;2022-10-17T11:27:53;96706.66;;;16.40;33.72
52957;BME280;38819;42.692;23.342;2022-10-17T11:30:19;96698.72;;;16.44;33.18
52957;BME280;38819;42.692;23.342;2022-10-17T11:32:55;96704.97;;;16.44;33.84
52957;BME280;38819;42.692;23.342;2022-10-17T11:38:29;96700.03;;;16.46;33.24
52957;BME280;38819;42.692;23.342;2022-10-17T11:40:45;96694.28;;;16.48;33.49
52957;BME280;38819;42.692;23.342;2022-10-17T11:43:22;96687.13;;;16.52;34.12
52957;BME280;38819;42.692;23.342;2022-10-17T11:45:53;96694.94;;;16.59;34.04
52957;BME280;38819;42.692;23.342;2022-10-17T11:48:33;96685.06;;;16.63;33.85
52957;BME280;38819;42.692;23.342;2022-10-17T11:51:04;96687.94;;;16.72;34.27
52957;BME280;38819;42.692;23.342;2022-10-17T11:53:36;96690.00;;;16.80;34.26
52957;BME280;38819;42.692;23.342;2022-10-17T11:56:05;96680.97;;;16.84;34.54
52957;BME280;38819;42.692;23.342;2022-10-17T12:06:03;96670.75;;;17.09;34.18
52957;BME280;38819;42.692;23.342;2022-10-17T12:08:36;96669.91;;;17.09;34.10
52957;BME280;38819;42.692;23.342;2022-10-17T12:16:42;96670.97;;;17.13;32.01
52957;BME280;38819;42.692;23.342;2022-10-17T12:18:42;96673.09;;;17.16;31.96
52957;BME280;38819;42.692;23.342;2022-10-17T12:21:07;96665.19;;;17.14;32.31
52957;BME280;38819;42.692;23.342;2022-10-17T12:23:33;96665.78;;;17.11;32.32
52957;BME280;38819;42.692;23.342;2022-10-17T12:26:01;96663.38;;;17.10;31.45
52957;BME280;38819;42.692;23.342;2022-10-17T12:28:31;96670.06;;;17.17;32.14
52957;BME280;38819;42.692;23.342;2022-10-17T12:31:02;96658.31;;;17.17;31.63
52957;BME280;38819;42.692;23.342;2022-10-17T12:52:16;96646.31;;;17.46;30.70
52957;BME280;38819;42.692;23.342;2022-10-17T12:57:18;96641.59;;;17.65;31.13
52957;BME280;38819;42.692;23.342;2022-10-17T12:59:44;96640.78;;;17.65;31.53
52957;BME280;38819;42.692;23.342;2022-10-17T13:02:11;96646.75;;;17.67;32.35
52957;BME280;38819;42.692;23.342;2022-10-17T13:04:41;96646.88;;;17.62;32.31
52957;BME280;38819;42.692;23.342;2022-10-17T13:07:11;96644.34;;;17.65;32.11
52957;BME280;38819;42.692;23.342;2022-10-17T13:09:41;96644.22;;;17.70;31.89
52957;BME280;38819;42.692;23.342;2022-10-17T13:12:09;96646.25;;;17.65;33.10
52957;BME280;38819;42.692;23.342;2022-10-17T13:14:38;96645.97;;;17.66;31.96
52957;BME280;38819;42.692;23.342;2022-10-17T13:17:04;96638.06;;;17.65;32.53
52957;BME280;38819;42.692;23.342;2022-10-17T13:19:38;96644.03;;;17.67;33.29
52957;BME280;38819;42.692;23.342;2022-10-17T13:22:09;96637.56;;;17.63;33.55
52957;BME280;38819;42.692;23.342;2022-10-17T13:24:36;96643.34;;;17.61;33.41
52957;BME280;38819;42.692;23.342;2022-10-17T13:27:03;96647.16;;;17.60;33.80
52957;BME280;38819;42.692;23.342;2022-10-17T13:29:28;96644.63;;;17.64;34.03
52957;BME280;38819;42.692;23.342;2022-10-17T13:31:59;96641.41;;;17.62;33.89
52957;BME280;38819;42.692;23.342;2022-10-17T13:34:27;96644.44;;;17.60;33.83
52957;BME280;38819;42.692;23.342;2022-10-17T13:36:53;96642.78;;;17.59;33.95
52957;BME280;38819;42.692;23.342;2022-10-17T13:39:21;96641.19;;;17.72;34.08
52957;BME280;38819;42.692;23.342;2022-10-17T13:41:47;96649.50;;;17.67;34.28
52957;BME280;38819;42.692;23.342;2022-10-17T13:44:13;96644.34;;;17.65;nan
52957;BME280;38819;42.692;23.342;2022-10-17T13:46:40;96647.78;;;17.71;34.11
52957;BME280;38819;42.692;23.342;2022-10-17T13:49:20;96643.63;;;17.73;34.22
52957;BME280;38819;42.692;23.342;2022-10-17T13:51:50;96642.31;;;17.71;34.63
52957;BME280;38819;42.692;23.342;2022-10-17T13:56:54;96645.34;;;17.69;35.43
52957;BME280;38819;42.692;23.342;2022-10-17T13:59:31;96652.22;;;17.67;35.74
52957;BME280;38819;42.692;23.342;2022-10-17T14:01:57;96647.88;;;17.66;35.56
52957;BME280;38819;42.692;23.342;2022-10-17T14:04:25;96660.72;;;17.65;35.78
52957;BME280;38819;42.692;23.342;2022-10-17T14:06:50;96656.06;;;17.66;35.84
52957;BME280;38819;42.692;23.342;2022-10-17T14:11:54;96652.53;;;17.65;37.10
52957;BME280;38819;42.692;23.342;2022-10-17T14:14:23;96656.06;;;17.66;37.01
52957;BME280;38819;42.692;23.342;2022-10-17T14:16:50;96673.19;;;17.57;37.29
52957;BME280;38819;42.692;23.342;2022-10-17T14:22:33;96665.16;;;17.47;37.08
52957;BME280;38819;42.692;23.342;2022-10-17T14:24:38;96653.63;;;17.50;37.67
52957;BME280;38819;42.692;23.342;2022-10-17T14:27:52;96663.75;;;17.50;37.64
52957;BME280;38819;42.692;23.342;2022-10-17T14:29:52;96663.09;;;17.39;37.99
52957;BME280;38819;42.692;23.342;2022-10-17T14:32:17;96662.09;;;17.35;38.52
52957;BME280;38819;42.692;23.342;2022-10-17T14:34:44;96662.09;;;17.35;38.87
52957;BME280;38819;42.692;23.342;2022-10-17T14:37:56;96661.09;;;17.31;38.83
52957;BME280;38819;42.692;23.342;2022-10-17T14:39:59;96662.78;;;17.27;39.06
52957;BME280;38819;42.692;23.342;2022-10-17T14:42:25;96663.50;;;17.32;39.23
52957;BME280;38819;42.692;23.342;2022-10-17T14:44:51;96667.38;;;17.31;39.60
52957;BME280;38819;42.692;23.342;2022-10-17T14:47:19;96667.16;;;17.28;39.88
52957;BME280;38819;42.692;23.342;2022-10-17T14:49:47;96668.03;;;17.23;39.84
52957;BME280;38819;42.692;23.342;2022-10-17T14:54:39;96676.91;;;17.15;40.21
52957;BME280;38819;42.692;23.342;2022-10-17T14:57:07;96677.00;;;17.10;40.31
52957;BME280;38819;42.692;23.342;2022-10-17T14:59:38;96679.81;;;17.04;40.50
52957;BME280;38819;42.692;23.342;2022-10-17T15:02:03;96681.22;;;17.02;40.80
52957;BME280;38819;42.692;23.342;2022-10-17T15:04:28;96684.63;;;16.94;40.51
52957;BME280;38819;42.692;23.342;2022-10-17T15:06:54;96672.78;;;16.84;41.10
52957;BME280;38819;42.692;23.342;2022-10-17T15:09:19;96676.16;;;16.76;41.18
52957;BME280;38819;42.692;23.342;2022-10-17T15:11:46;96673.28;;;16.67;41.34
52957;BME280;38819;42.692;23.342;2022-10-17T15:14:11;96679.91;;;16.61;41.13